Time;durP1;ratioP1;P1;durP2;ratioP2;P2;SDS_P1;SDS_P2;PMS_P1;PMS_P2;Temp;Humidity;BMP_temperature;BMP_pressure;BME280_temperature;BME280_humidity;BME280_pressure;Samples;Min_cycle;Max_cycle;Signal;HPM_P1;HPM_P2
2020/12/22 00:00:54;;;;;;;1.00;1.00;;;;;;;10.74;100.00;99475.66;5063749;28;20208;-30
2020/12/22 00:03:40;;;;;;;1.20;1.20;;;;;;;10.87;100.00;99473.66;5062906;28;20258;-31
2020/12/22 00:06:26;;;;;;;1.17;1.17;;;;;;;10.82;100.00;99467.72;5060231;28;20204;-30
2020/12/22 00:09:12;;;;;;;2.57;1.70;;;;;;;10.83;100.00;99465.09;5060264;28;20204;-30
2020/12/22 00:11:58;;;;;;;1.70;1.60;;;;;;;10.87;100.00;99471.06;5060373;28;20206;-31
2020/12/22 00:14:44;;;;;;;1.30;1.30;;;;;;;10.86;100.00;99467.63;5060622;28;20354;-30
2020/12/22 00:17:30;;;;;;;1.50;1.40;;;;;;;10.89;100.00;99475.31;5061023;28;20200;-31
2020/12/22 00:20:16;;;;;;;2.40;1.30;;;;;;;10.96;100.00;99463.09;5061285;28;20192;-31
2020/12/22 00:23:02;;;;;;;2.50;1.37;;;;;;;10.95;100.00;99470.00;5061288;28;20379;-31
2020/12/22 00:25:50;;;;;;;1.57;1.47;;;;;;;11.01;100.00;99469.84;5060917;28;20204;-31
2020/12/22 00:28:36;;;;;;;1.80;1.70;;;;;;;10.97;100.00;99459.63;5061421;28;20521;-31
2020/12/22 00:31:23;;;;;;;1.60;1.50;;;;;;;11.05;100.00;99460.28;5061738;28;20350;-31
2020/12/22 00:34:08;;;;;;;2.23;1.83;;;;;;;11.01;100.00;99451.72;5060247;28;20722;-31
2020/12/22 00:36:54;;;;;;;1.93;1.83;;;;;;;11.05;100.00;99449.91;5059967;28;20610;-31
2020/12/22 00:39:40;;;;;;;2.20;2.10;;;;;;;11.05;100.00;99449.91;5060249;28;20550;-30
2020/12/22 00:42:30;;;;;;;4.53;2.20;;;;;;;11.17;100.00;99444.47;5059915;28;20196;-31
2020/12/22 00:45:15;;;;;;;2.27;2.10;;;;;;;11.11;100.00;99443.75;5059785;28;20196;-31
2020/12/22 00:48:01;;;;;;;2.33;2.23;;;;;;;11.13;100.00;99437.66;5060015;28;20223;-30
2020/12/22 00:50:47;;;;;;;2.30;2.20;;;;;;;11.18;100.00;99433.22;5060006;28;20207;-30
2020/12/22 00:53:33;;;;;;;3.20;2.90;;;;;;;11.32;100.00;99430.28;5060092;28;20200;-30
2020/12/22 00:56:19;;;;;;;3.10;2.90;;;;;;;11.30;100.00;99425.13;5059776;28;20296;-30
2020/12/22 00:59:08;;;;;;;2.77;2.60;;;;;;;11.51;100.00;99415.13;5060703;28;20620;-31
2020/12/22 01:01:54;;;;;;;3.20;3.00;;;;;;;11.37;100.00;99412.91;5060264;28;20259;-31
2020/12/22 01:04:41;;;;;;;3.50;3.30;;;;;;;11.40;100.00;99402.44;5065079;28;20271;-31
2020/12/22 01:07:26;;;;;;;3.43;3.20;;;;;;;11.49;100.00;99412.56;5064800;28;20398;-31
2020/12/22 01:10:12;;;;;;;3.00;2.80;;;;;;;11.48;100.00;99413.47;5059307;28;20232;-31
2020/12/22 01:12:58;;;;;;;4.47;3.40;;;;;;;11.62;100.00;99420.84;5059268;28;20204;-31
2020/12/22 01:15:44;;;;;;;3.90;3.60;;;;;;;11.66;100.00;99417.28;5059195;28;20205;-31
2020/12/22 01:18:30;;;;;;;3.63;3.33;;;;;;;11.63;100.00;99425.16;5060700;28;20204;-31
2020/12/22 01:21:20;;;;;;;3.43;3.23;;;;;;;11.71;100.00;99423.22;5060871;28;20207;-31
2020/12/22 01:24:06;;;;;;;4.30;4.00;;;;;;;11.70;100.00;99424.94;5063071;28;20299;-31
2020/12/22 01:26:53;;;;;;;4.30;3.97;;;;;;;11.74;100.00;99423.13;5059891;28;20302;-32
2020/12/22 01:29:39;;;;;;;4.27;3.97;;;;;;;11.88;100.00;99426.22;5059806;28;20216;-31
2020/12/22 01:32:28;;;;;;;4.40;4.10;;;;;;;11.81;100.00;99416.91;5059598;28;20240;-31
2020/12/22 01:35:13;;;;;;;5.30;4.23;;;;;;;11.87;100.00;99418.50;5059093;28;20247;-31
2020/12/22 01:38:00;;;;;;;5.00;4.60;;;;;;;11.87;100.00;99405.53;5059893;28;20251;-32
2020/12/22 01:40:49;;;;;;;5.60;5.20;;;;;;;11.86;100.00;99414.19;5060726;28;20204;-32
2020/12/22 01:43:35;;;;;;;4.90;4.60;;;;;;;11.87;100.00;99411.56;5059475;28;20247;-32
2020/12/22 01:46:22;;;;;;;5.40;5.00;;;;;;;11.93;100.00;99415.72;5059047;28;20232;-31
2020/12/22 01:49:24;;;;;;;5.10;4.67;;;;;;;12.05;100.00;99411.03;5058684;28;20204;-31
2020/12/22 01:52:10;;;;;;;4.83;4.50;;;;;;;11.96;100.00;99407.88;5058303;28;20300;-31
2020/12/22 01:54:56;;;;;;;5.30;4.90;;;;;;;11.97;100.00;99406.97;5058390;28;20239;-31
2020/12/22 01:57:43;;;;;;;4.77;4.47;;;;;;;11.97;100.00;99407.84;5058417;28;20196;-31
2020/12/22 02:00:29;;;;;;;6.30;4.50;;;;;;;12.01;100.00;99404.25;5060255;28;20221;-31
2020/12/22 02:03:15;;;;;;;6.90;5.37;;;;;;;12.01;100.00;99396.47;5058227;28;20197;-31
2020/12/22 02:06:03;;;;;;;5.00;4.70;;;;;;;12.08;100.00;99389.38;5058358;28;20247;-31
2020/12/22 02:08:48;;;;;;;5.37;4.97;;;;;;;12.03;100.00;99384.31;5059032;28;20231;-31
2020/12/22 02:11:36;;;;;;;5.80;5.27;;;;;;;12.25;100.00;99386.28;5059236;28;20551;-31
2020/12/22 02:14:22;;;;;;;5.90;5.50;;;;;;;12.14;100.00;99377.97;5059509;28;20197;-31
2020/12/22 02:17:08;;;;;;;5.30;4.90;;;;;;;12.16;100.00;99379.63;5059321;28;20196;-31
2020/12/22 02:19:53;;;;;;;5.40;5.00;;;;;;;12.11;100.00;99375.47;5059050;28;20263;-31
2020/12/22 02:22:40;;;;;;;5.70;5.20;;;;;;;12.14;100.00;99371.06;5058621;28;20251;-31
2020/12/22 02:25:26;;;;;;;6.30;5.20;;;;;;;12.25;100.00;99362.94;5058685;28;20199;-31
2020/12/22 02:28:11;;;;;;;6.20;5.70;;;;;;;12.25;100.00;99376.75;5057754;28;20626;-31
2020/12/22 02:30:59;;;;;;;4.60;4.27;;;;;;;12.23;100.00;99373.34;5059182;28;20204;-32
2020/12/22 02:33:45;;;;;;;5.10;4.70;;;;;;;12.30;100.00;99374.03;5059849;28;20224;-31
2020/12/22 02:36:33;;;;;;;5.60;5.20;;;;;;;12.27;100.00;99368.94;5058377;28;20212;-31
2020/12/22 02:39:21;;;;;;;5.67;5.27;;;;;;;12.40;100.00;99372.84;5058635;28;20483;-31
2020/12/22 02:42:07;;;;;;;5.17;4.87;;;;;;;12.46;100.00;99377.84;5058366;28;20204;-31
2020/12/22 02:44:52;;;;;;;5.33;4.93;;;;;;;12.35;100.00;99372.16;5058356;28;20614;-31
2020/12/22 02:47:39;;;;;;;6.63;6.23;;;;;;;12.38;100.00;99377.25;5059154;28;20228;-31
2020/12/22 02:50:24;;;;;;;5.87;5.37;;;;;;;12.35;100.00;99380.78;5059052;28;20611;-31
2020/12/22 02:53:10;;;;;;;6.40;5.90;;;;;;;12.38;100.00;99372.06;5057506;28;20282;-31
2020/12/22 02:55:58;;;;;;;6.00;5.60;;;;;;;12.41;100.00;99366.75;5057218;28;20219;-31
2020/12/22 02:58:44;;;;;;;6.30;5.80;;;;;;;12.40;100.00;99378.88;5058656;28;20201;-31
2020/12/22 03:01:30;;;;;;;5.80;5.03;;;;;;;12.47;100.00;99376.94;5058306;28;20204;-32
2020/12/22 03:04:16;;;;;;;5.80;5.40;;;;;;;12.48;100.00;99368.28;5058131;28;20219;-31
2020/12/22 03:07:03;;;;;;;6.07;5.67;;;;;;;12.45;100.00;99364.91;5057493;28;20200;-31
2020/12/22 03:09:49;;;;;;;5.67;5.27;;;;;;;12.43;100.00;99358.03;5057762;28;20782;-32
2020/12/22 03:12:36;;;;;;;6.37;5.80;;;;;;;12.51;100.00;99356.97;5058025;28;20736;-32
2020/12/22 03:15:22;;;;;;;6.70;6.20;;;;;;;12.55;100.00;99353.38;5057772;28;20200;-31
2020/12/22 03:18:08;;;;;;;6.40;5.90;;;;;;;12.51;100.00;99357.81;5058599;28;20331;-31
2020/12/22 03:20:54;;;;;;;6.27;5.27;;;;;;;12.56;100.00;99370.66;5058435;28;20228;-31
2020/12/22 03:23:40;;;;;;;6.37;5.87;;;;;;;12.49;100.00;99346.63;5057987;28;20295;-31
2020/12/22 03:26:25;;;;;;;6.03;5.63;;;;;;;12.59;100.00;99355.81;5057495;28;20221;-31
2020/12/22 03:29:12;;;;;;;6.27;5.67;;;;;;;12.66;100.00;99352.13;5057877;28;20287;-31
2020/12/22 03:31:58;;;;;;;6.70;6.20;;;;;;;12.75;100.00;99344.06;5058277;28;20197;-31
2020/12/22 03:34:43;;;;;;;6.50;5.87;;;;;;;12.79;100.00;99346.56;5058219;28;20669;-31
2020/12/22 03:37:29;;;;;;;6.50;5.90;;;;;;;12.85;100.00;99349.78;5058548;28;20351;-31
2020/12/22 03:40:16;;;;;;;7.73;5.27;;;;;;;12.83;100.00;99353.31;5061487;28;20204;-31
2020/12/22 03:43:02;;;;;;;6.07;5.63;;;;;;;12.92;100.00;99351.28;5063025;28;20243;-31
2020/12/22 03:45:49;;;;;;;6.27;5.83;;;;;;;13.05;100.00;99351.72;5061818;28;20506;-31
2020/12/22 03:48:36;;;;;;;6.57;5.97;;;;;;;13.10;100.00;99350.69;5063410;28;20711;-31
2020/12/22 03:51:22;;;;;;;5.33;4.93;;;;;;;13.16;100.00;99357.44;5061833;28;20357;-31
2020/12/22 03:54:08;;;;;;;5.23;4.73;;;;;;;13.16;100.00;99361.78;5061709;28;20271;-31
2020/12/22 03:56:54;;;;;;;5.97;4.33;;;;;;;13.23;100.00;99369.31;5061070;28;20290;-32
2020/12/22 03:59:41;;;;;;;4.47;4.07;;;;;;;13.34;100.00;99362.00;5060858;28;20200;-31
2020/12/22 04:02:27;;;;;;;4.97;4.23;;;;;;;13.35;100.00;99374.09;5061484;28;20274;-31
2020/12/22 04:05:13;;;;;;;4.50;4.10;;;;;;;13.44;100.00;99365.97;5061505;28;20287;-31
2020/12/22 04:07:59;;;;;;;4.60;4.10;;;;;;;13.41;100.00;99370.41;5061282;28;20230;-31
2020/12/22 04:10:45;;;;;;;4.10;3.73;;;;;;;13.39;100.00;99362.69;5061592;28;20212;-32
2020/12/22 04:13:31;;;;;;;5.73;3.80;;;;;;;13.45;100.00;99361.63;5061204;28;20227;-32
2020/12/22 04:16:18;;;;;;;4.37;3.97;;;;;;;13.50;100.00;99367.53;5061375;28;20296;-31
2020/12/22 04:19:05;;;;;;;4.97;4.33;;;;;;;13.59;100.00;99377.56;5061247;28;20197;-31
2020/12/22 04:21:51;;;;;;;5.10;4.70;;;;;;;13.65;100.00;99392.09;5061017;28;20543;-31
2020/12/22 04:24:37;;;;;;;5.47;4.63;;;;;;;13.63;100.00;99393.91;5062025;28;20290;-32
2020/12/22 04:27:22;;;;;;;5.70;5.13;;;;;;;13.58;100.00;99390.66;5060985;28;20285;-32
2020/12/22 04:30:09;;;;;;;6.47;5.87;;;;;;;13.63;100.00;99391.31;5061856;28;20259;-32
2020/12/22 04:32:54;;;;;;;6.87;6.17;;;;;;;13.66;100.00;99394.66;5062051;28;20303;-32
2020/12/22 04:35:42;;;;;;;6.10;5.50;;;;;;;13.72;100.00;99386.66;5061183;28;20209;-32
2020/12/22 04:38:27;;;;;;;6.07;5.47;;;;;;;13.78;100.00;99396.84;5061600;28;20347;-32
2020/12/22 04:41:14;;;;;;;6.87;5.77;;;;;;;13.69;100.00;99389.34;5060977;28;20485;-32
2020/12/22 04:44:01;;;;;;;6.73;6.17;;;;;;;13.79;100.00;99402.84;5060235;28;20227;-32
2020/12/22 04:46:50;;;;;;;7.50;6.40;;;;;;;13.73;100.00;99387.50;5060923;28;20603;-32
2020/12/22 04:49:39;;;;;;;7.30;6.70;;;;;;;13.76;100.00;99395.19;5060815;28;20547;-32
2020/12/22 04:52:27;;;;;;;6.83;6.30;;;;;;;13.90;100.00;99399.88;5060105;28;20208;-32
2020/12/22 04:55:13;;;;;;;6.90;6.30;;;;;;;13.79;100.00;99395.91;5061386;28;20316;-32
2020/12/22 04:58:00;;;;;;;7.27;6.60;;;;;;;13.85;100.00;99407.00;5060928;28;20201;-32
2020/12/22 05:00:45;;;;;;;7.37;6.63;;;;;;;13.90;100.00;99394.69;5059784;28;20205;-32
2020/12/22 05:03:31;;;;;;;6.53;6.03;;;;;;;13.82;100.00;99383.69;5060449;28;20200;-32
2020/12/22 05:06:18;;;;;;;6.50;5.90;;;;;;;13.95;100.00;99391.03;5060990;28;20200;-32
2020/12/22 05:09:05;;;;;;;6.93;6.30;;;;;;;14.05;100.00;99384.56;5060479;28;20228;-32
2020/12/22 05:11:51;;;;;;;6.60;6.10;;;;;;;14.02;100.00;99399.44;5061016;28;20286;-32
2020/12/22 05:14:36;;;;;;;6.83;6.07;;;;;;;14.09;100.00;99408.72;5060626;28;20535;-32
2020/12/22 05:17:22;;;;;;;5.90;5.40;;;;;;;14.15;100.00;99416.31;5061212;28;20197;-31
2020/12/22 05:20:11;;;;;;;6.47;5.87;;;;;;;14.06;100.00;99417.47;5060108;28;20263;-32
2020/12/22 05:22:58;;;;;;;5.63;5.07;;;;;;;14.06;100.00;99414.88;5058949;28;20629;-31
2020/12/22 05:25:49;;;;;;;6.13;5.63;;;;;;;14.21;100.00;99417.81;5059593;28;20189;-32
2020/12/22 05:28:36;;;;;;;6.03;5.43;;;;;;;14.13;100.00;99408.56;5059411;28;20228;-31
2020/12/22 05:31:22;;;;;;;5.30;4.90;;;;;;;14.14;100.00;99418.06;5059610;28;20232;-31
2020/12/22 05:34:10;;;;;;;4.80;4.40;;;;;;;14.20;100.00;99431.72;5059898;28;20243;-31
2020/12/22 05:36:59;;;;;;;4.90;4.60;;;;;;;14.14;100.00;99430.22;5059513;28;20260;-32
2020/12/22 05:39:45;;;;;;;7.37;5.47;;;;;;;14.13;100.00;99431.13;5058685;28;20274;-31
2020/12/22 05:42:32;;;;;;;5.83;5.43;;;;;;;14.03;100.00;99412.38;5059015;28;20192;-32
2020/12/22 05:45:18;;;;;;;5.50;4.87;;;;;;;14.00;100.00;99422.03;5059017;28;20200;-32
2020/12/22 05:48:05;;;;;;;6.10;5.70;;;;;;;14.07;100.00;99419.16;5058210;28;20386;-32
2020/12/22 05:50:51;;;;;;;5.80;5.40;;;;;;;14.17;100.00;99424.06;5059085;28;20201;-31
2020/12/22 05:53:42;;;;;;;6.10;5.70;;;;;;;14.22;100.00;99424.72;5059587;28;20290;-31
2020/12/22 05:56:28;;;;;;;5.70;5.20;;;;;;;14.16;100.00;99427.56;5058847;28;20193;-31
2020/12/22 05:59:19;;;;;;;4.50;4.20;;;;;;;14.30;100.00;99423.53;5061375;28;20192;-32
2020/12/22 06:02:07;;;;;;;4.57;4.20;;;;;;;14.27;100.00;99431.44;5058294;28;20194;-32
2020/12/22 06:04:54;;;;;;;3.97;3.70;;;;;;;14.30;100.00;99433.94;5057669;28;20264;-32
2020/12/22 06:07:40;;;;;;;4.83;4.30;;;;;;;14.38;100.00;99439.72;5058367;28;20310;-32
2020/12/22 06:10:26;;;;;;;4.13;3.93;;;;;;;14.51;100.00;99444.47;5058010;28;20201;-31
2020/12/22 06:13:12;;;;;;;4.37;4.07;;;;;;;14.23;100.00;99436.81;5059047;28;20582;-31
2020/12/22 06:16:01;;;;;;;4.83;3.83;;;;;;;14.37;100.00;99438.03;5058507;28;20205;-31
2020/12/22 06:18:49;;;;;;;3.87;3.67;;;;;;;14.42;100.00;99440.44;5057798;28;20201;-31
2020/12/22 06:21:37;;;;;;;3.60;3.40;;;;;;;14.41;100.00;99446.56;5059082;28;20293;-31
2020/12/22 06:24:22;;;;;;;3.27;3.03;;;;;;;14.38;100.00;99444.06;5058170;28;20521;-31
2020/12/22 06:27:09;;;;;;;2.93;2.73;;;;;;;14.39;100.00;99451.78;5058140;28;20553;-31
2020/12/22 06:29:55;;;;;;;2.60;2.50;;;;;;;14.55;100.00;99461.69;5058236;28;20354;-31
2020/12/22 06:32:43;;;;;;;2.53;2.43;;;;;;;14.48;100.00;99468.88;5058590;28;20200;-31
2020/12/22 06:35:30;;;;;;;2.60;2.50;;;;;;;14.50;100.00;99471.41;5058288;28;20206;-31
2020/12/22 06:38:42;;;;;;;2.40;2.30;;;;;;;14.65;100.00;99482.09;5058094;28;20706;-31
2020/12/22 06:41:47;;;;;;;2.43;2.33;;;;;;;14.48;100.00;99485.34;5058004;28;20495;-31
2020/12/22 06:44:33;;;;;;;2.43;2.33;;;;;;;14.57;100.00;99493.72;5058555;28;20260;-31
2020/12/22 06:47:34;;;;;;;2.90;2.70;;;;;;;14.47;100.00;99486.22;5057443;28;20198;-32
2020/12/22 06:50:38;;;;;;;2.90;2.70;;;;;;;14.52;100.00;99486.06;5057337;28;20292;-31
2020/12/22 06:53:35;;;;;;;3.07;2.87;;;;;;;14.47;100.00;99493.19;5058317;28;20202;-31
2020/12/22 06:56:40;;;;;;;3.40;3.20;;;;;;;14.40;100.00;99496.88;5058334;28;20703;-32
2020/12/22 06:59:51;;;;;;;2.80;2.60;;;;;;;14.46;100.00;99507.09;5058283;28;20640;-31
2020/12/22 07:02:37;;;;;;;3.30;3.10;;;;;;;14.33;100.00;99508.44;5056198;28;20295;-32
2020/12/22 07:05:40;;;;;;;3.20;3.00;;;;;;;14.35;100.00;99510.09;5058035;28;20271;-31
2020/12/22 07:08:28;;;;;;;5.70;3.70;;;;;;;14.25;100.00;99515.66;5056900;28;20332;-32
2020/12/22 07:11:24;;;;;;;4.93;4.20;;;;;;;14.21;100.00;99522.72;5058031;28;20196;-32
2020/12/22 07:14:13;;;;;;;4.77;4.47;;;;;;;14.25;100.00;99520.84;5059314;28;20693;-32
2020/12/22 07:17:01;;;;;;;5.00;4.70;;;;;;;13.99;100.00;99512.22;5061093;28;20189;-32
2020/12/22 07:19:49;;;;;;;5.00;4.70;;;;;;;13.96;100.00;99527.94;5061853;28;20201;-32
2020/12/22 07:22:53;;;;;;;6.20;5.60;;;;;;;14.03;100.00;99521.63;5067487;28;20203;-32
2020/12/22 07:25:58;;;;;;;5.57;5.17;;;;;;;14.10;100.00;99530.06;5063669;28;20318;-33
2020/12/22 07:28:52;;;;;;;6.90;6.03;;;;;;;14.01;100.00;99528.63;5061118;28;20229;-32
2020/12/22 07:31:40;;;;;;;6.33;5.83;;;;;;;14.04;100.00;99527.66;5061325;28;20611;-31
2020/12/22 07:34:27;;;;;;;6.00;5.50;;;;;;;14.01;100.00;99541.63;5061356;28;20286;-32
2020/12/22 07:37:14;;;;;;;6.67;6.07;;;;;;;13.93;100.00;99543.66;5061080;28;20606;-32
2020/12/22 07:40:08;;;;;;;6.77;6.30;;;;;;;14.06;100.00;99551.88;5060523;28;20259;-31
2020/12/22 07:43:03;;;;;;;5.87;5.37;;;;;;;14.12;100.00;99557.72;5060649;28;20205;-32
2020/12/22 07:45:49;;;;;;;6.80;6.30;;;;;;;14.00;100.00;99552.06;5060657;28;20206;-32
2020/12/22 07:48:36;;;;;;;6.40;5.80;;;;;;;14.01;100.00;99567.63;5060476;28;20716;-32
2020/12/22 07:51:22;;;;;;;6.90;6.27;;;;;;;13.91;100.00;99570.59;5060984;28;20296;-32
2020/12/22 07:54:09;;;;;;;7.17;6.67;;;;;;;14.13;100.00;99572.44;5060281;28;20201;-32
2020/12/22 07:56:59;;;;;;;7.67;7.07;;;;;;;13.93;100.00;99574.00;5060211;28;20246;-32
2020/12/22 07:59:47;;;;;;;7.83;7.20;;;;;;;13.90;100.00;99580.16;5061540;28;20232;-32
2020/12/22 08:02:34;;;;;;;9.70;8.90;;;;;;;13.82;100.00;99579.56;5060552;28;20204;-32
2020/12/22 08:05:20;;;;;;;10.07;9.07;;;;;;;13.84;100.00;99584.69;5060415;28;20196;-32
2020/12/22 08:08:06;;;;;;;10.70;9.80;;;;;;;13.79;100.00;99582.25;5059997;28;20236;-32
2020/12/22 08:10:53;;;;;;;11.37;10.37;;;;;;;13.89;100.00;99580.22;5059932;28;20200;-32
2020/12/22 08:13:40;;;;;;;12.03;10.93;;;;;;;13.73;100.00;99592.88;5061170;28;20258;-32
2020/12/22 08:16:29;;;;;;;11.53;10.43;;;;;;;13.89;100.00;99595.81;5061608;28;20247;-32
2020/12/22 08:19:19;;;;;;;10.47;9.47;;;;;;;13.93;100.00;99603.47;5039690;28;20201;-33
2020/12/22 08:22:08;;;;;;;8.90;8.20;;;;;;;13.93;100.00;99607.81;5040471;28;20206;-33
2020/12/22 08:24:55;;;;;;;8.57;7.97;;;;;;;13.90;100.00;99610.50;5040923;28;20249;-32
2020/12/22 08:27:42;;;;;;;8.83;7.93;;;;;;;13.90;100.00;99603.56;5039405;28;20324;-32
2020/12/22 08:30:33;;;;;;;8.30;7.60;;;;;;;13.97;100.00;99599.03;5040099;28;20209;-32
2020/12/22 08:33:22;;;;;;;6.77;6.27;;;;;;;13.95;100.00;99622.47;5040095;28;20260;-32
2020/12/22 08:36:12;;;;;;;7.07;6.37;;;;;;;14.03;100.00;99617.84;5040065;28;20201;-32
2020/12/22 08:39:28;;;;;;;5.97;5.40;;;;;;;14.10;100.00;99618.50;5039460;28;20197;-32
2020/12/22 08:42:15;;;;;;;6.97;6.40;;;;;;;14.00;100.00;99622.28;4998248;28;20311;-32
2020/12/22 08:45:01;;;;;;;7.53;6.97;;;;;;;13.99;100.00;99637.06;5039401;28;20218;-32
2020/12/22 08:47:52;;;;;;;8.37;7.63;;;;;;;13.90;100.00;99639.13;5039222;28;20677;-32
2020/12/22 08:50:48;;;;;;;9.10;8.40;;;;;;;14.09;100.00;99643.66;5038824;28;20304;-32
2020/12/22 08:53:54;;;;;;;8.37;7.57;;;;;;;13.86;100.00;99646.16;5038911;28;20210;-32
2020/12/22 08:56:41;;;;;;;8.60;7.80;;;;;;;13.97;100.00;99646.69;5039166;28;20204;-32
2020/12/22 08:59:28;;;;;;;8.37;7.77;;;;;;;14.09;100.00;99653.22;5042084;28;20449;-32
2020/12/22 09:02:26;;;;;;;7.13;6.63;;;;;;;14.05;100.00;99660.28;5059440;28;20798;-32
2020/12/22 09:05:14;;;;;;;7.40;6.80;;;;;;;14.07;100.00;99658.47;5059314;28;20204;-32
2020/12/22 09:08:05;;;;;;;7.30;6.70;;;;;;;14.07;100.00;99665.44;5058860;28;20192;-32
2020/12/22 09:10:51;;;;;;;6.80;6.20;;;;;;;14.10;100.00;99673.13;5059681;28;20209;-32
2020/12/22 09:13:37;;;;;;;7.40;6.70;;;;;;;14.16;100.00;99679.91;5059460;28;20205;-32
2020/12/22 09:16:23;;;;;;;6.67;6.13;;;;;;;14.27;100.00;99677.78;5059114;28;20205;-32
2020/12/22 09:19:09;;;;;;;7.70;6.73;;;;;;;14.22;100.00;99687.47;5058470;28;20213;-32
2020/12/22 09:22:01;;;;;;;4.73;4.33;;;;;;;14.38;100.00;99692.16;5059481;28;20661;-32
2020/12/22 09:24:50;;;;;;;6.20;5.60;;;;;;;14.30;100.00;99688.09;5058528;28;20697;-32
2020/12/22 09:27:38;;;;;;;5.50;4.70;;;;;;;14.42;100.00;99692.91;5059446;28;20317;-31
2020/12/22 09:30:27;;;;;;;6.03;4.83;;;;;;;14.48;100.00;99703.13;5058618;28;20602;-32
2020/12/22 09:33:13;;;;;;;3.97;3.73;;;;;;;14.55;100.00;99701.16;5058974;28;20610;-32
2020/12/22 09:35:59;;;;;;;3.87;3.67;;;;;;;14.59;100.00;99698.38;5059489;28;20204;-32
2020/12/22 09:38:46;;;;;;;3.33;3.00;;;;;;;14.84;100.00;99708.81;5059513;28;20634;-32
2020/12/22 09:41:40;;;;;;;4.67;2.43;;;;;;;14.64;100.00;99709.50;5059708;28;20220;-32
2020/12/22 09:44:27;;;;;;;5.60;2.57;;;;;;;14.63;100.00;99720.81;5057646;28;20277;-32
2020/12/22 09:47:14;;;;;;;3.60;2.77;;;;;;;14.28;100.00;99747.13;5058399;28;20368;-32
2020/12/22 09:50:00;;;;;;;5.60;3.80;;;;;;;13.73;100.00;99751.44;5058983;28;20237;-32
2020/12/22 09:52:46;;;;;;;6.27;3.50;;;;;;;13.74;100.00;99748.81;5059124;28;20340;-32
2020/12/22 09:55:36;;;;;;;3.30;3.10;;;;;;;13.34;100.00;99743.06;5059429;28;20199;-31
2020/12/22 09:58:38;;;;;;;3.07;2.57;;;;;;;12.94;100.00;99746.72;5059874;28;20716;-31
2020/12/22 10:01:26;;;;;;;2.97;2.03;;;;;;;12.68;100.00;99752.59;5059296;28;20228;-30
2020/12/22 10:04:12;;;;;;;3.70;2.33;;;;;;;12.73;100.00;99744.69;5059018;28;20199;-30
2020/12/22 10:07:01;;;;;;;2.50;2.30;;;;;;;12.79;100.00;99743.69;5059327;28;20590;-30
2020/12/22 10:09:47;;;;;;;3.47;2.40;;;;;;;12.75;100.00;99759.34;5058760;28;20669;-31
2020/12/22 10:12:34;;;;;;;4.83;2.87;;;;;;;12.63;100.00;99775.19;5059291;28;20222;-31
2020/12/22 10:15:20;;;;;;;4.40;3.67;;;;;;;12.68;100.00;99773.34;5060283;28;20213;-30
2020/12/22 10:18:09;;;;;;;3.73;3.50;;;;;;;12.84;100.00;99763.41;5059614;28;20290;-30
2020/12/22 10:20:55;;;;;;;5.53;4.53;;;;;;;12.88;100.00;99761.59;5059218;28;20591;-30
2020/12/22 10:23:42;;;;;;;6.50;5.90;;;;;;;13.01;100.00;99774.22;5059636;28;20236;-30
2020/12/22 10:26:29;;;;;;;7.63;6.60;;;;;;;12.88;100.00;99785.81;5059374;28;20201;-30
2020/12/22 10:29:16;;;;;;;7.27;5.00;;;;;;;12.91;100.00;99784.91;5059098;28;20397;-30
2020/12/22 10:32:04;;;;;;;5.83;5.40;;;;;;;12.99;100.00;99781.19;5058422;28;20252;-30
2020/12/22 10:34:51;;;;;;;7.57;6.23;;;;;;;12.92;100.00;99791.78;5058079;28;20487;-30
2020/12/22 10:37:36;;;;;;;7.63;6.87;;;;;;;13.01;100.00;99794.13;5058873;28;20205;-30
2020/12/22 10:40:22;;;;;;;7.83;6.63;;;;;;;12.85;100.00;99795.44;5058422;28;20242;-30
2020/12/22 10:43:08;;;;;;;7.23;6.57;;;;;;;12.93;100.00;99809.94;5058385;28;20483;-30
2020/12/22 10:45:57;;;;;;;9.27;7.73;;;;;;;12.89;100.00;99802.25;5057949;28;20350;-30
2020/12/22 10:48:43;;;;;;;8.03;7.07;;;;;;;12.72;100.00;99795.75;5054862;28;20375;-30
2020/12/22 10:51:31;;;;;;;11.53;8.67;;;;;;;12.65;100.00;99801.13;5057946;28;20236;-30
2020/12/22 10:54:18;;;;;;;10.00;7.50;;;;;;;12.80;100.00;99810.25;5059038;28;20271;-30
2020/12/22 10:57:05;;;;;;;11.20;9.37;;;;;;;12.66;100.00;99808.88;5057690;28;20193;-30
2020/12/22 10:59:54;;;;;;;11.77;8.20;;;;;;;12.96;100.00;99820.25;5058144;28;20615;-30
2020/12/22 11:02:44;;;;;;;11.10;8.40;;;;;;;12.96;100.00;99816.78;5059579;28;20209;-30
2020/12/22 11:08:39;;;;;;;7.53;6.73;;;;;;;13.12;100.00;99825.88;5058750;28;20282;-30
2020/12/22 11:11:27;;;;;;;6.93;6.13;;;;;;;13.31;100.00;99824.53;5059361;28;20339;-30
2020/12/22 11:14:13;;;;;;;8.17;6.63;;;;;;;13.51;100.00;99830.94;5059291;28;20551;-30
2020/12/22 11:16:59;;;;;;;6.83;5.37;;;;;;;13.37;100.00;99836.53;5058186;28;20220;-30
2020/12/22 11:19:46;;;;;;;7.97;5.87;;;;;;;13.37;100.00;99832.19;5060050;28;20193;-30
2020/12/22 11:22:33;;;;;;;7.50;6.10;;;;;;;13.67;100.00;99838.25;5059672;28;20259;-30
2020/12/22 11:25:30;;;;;;;5.80;5.30;;;;;;;13.62;100.00;99849.66;5019394;28;20332;-30
2020/12/22 11:28:19;;;;;;;7.30;6.37;;;;;;;13.49;100.00;99856.97;5019144;28;20296;-30
2020/12/22 11:31:05;;;;;;;6.47;5.00;;;;;;;13.53;100.00;99850.78;5019489;28;20581;-30
2020/12/22 11:33:51;;;;;;;5.77;5.27;;;;;;;13.52;100.00;99863.81;5019927;28;20563;-30
2020/12/22 11:36:38;;;;;;;5.93;4.97;;;;;;;13.84;100.00;99861.19;5019152;28;20258;-30
2020/12/22 11:39:25;;;;;;;5.60;4.40;;;;;;;13.67;100.00;99856.47;5019159;28;20218;-30
2020/12/22 11:42:14;;;;;;;3.97;3.63;;;;;;;13.66;100.00;99865.16;5018667;28;20341;-30
2020/12/22 11:44:59;;;;;;;4.10;3.77;;;;;;;13.56;100.00;99861.13;5019911;28;20274;-30
2020/12/22 11:47:49;;;;;;;5.93;3.97;;;;;;;13.40;100.00;99854.59;5019244;28;20198;-30
2020/12/22 11:50:40;;;;;;;3.77;3.50;;;;;;;13.49;100.00;99867.34;5019212;28;20238;-30
2020/12/22 11:53:28;;;;;;;5.90;4.03;;;;;;;13.59;100.00;99860.19;5017926;28;20206;-30
2020/12/22 11:56:15;;;;;;;5.80;3.50;;;;;;;13.49;100.00;99861.31;5013352;28;20474;-30
2020/12/22 11:59:04;;;;;;;3.77;3.47;;;;;;;13.49;100.00;99859.56;5013273;28;20207;-30
2020/12/22 12:01:51;;;;;;;5.03;4.00;;;;;;;13.64;100.00;99869.53;5021299;28;20485;-30
2020/12/22 12:04:38;;;;;;;4.90;3.70;;;;;;;13.69;100.00;99872.00;5021356;28;20422;-30
2020/12/22 12:07:23;;;;;;;3.30;3.00;;;;;;;13.85;100.00;99877.63;5021512;28;20265;-30
2020/12/22 12:10:13;;;;;;;3.63;3.33;;;;;;;13.50;100.00;99886.41;5021150;28;20233;-30
2020/12/22 12:12:59;;;;;;;3.83;2.67;;;;;;;13.74;100.00;99878.81;5021041;28;20444;-30
2020/12/22 12:15:46;;;;;;;4.30;3.10;;;;;;;13.58;100.00;99874.06;5020745;28;20305;-30
2020/12/22 12:18:33;;;;;;;4.07;3.13;;;;;;;13.60;100.00;99885.25;5021269;28;20585;-30
2020/12/22 12:21:19;;;;;;;4.93;4.00;;;;;;;13.68;100.00;99885.91;5020681;28;20210;-30
2020/12/22 12:24:05;;;;;;;3.57;3.27;;;;;;;13.55;100.00;99900.13;5044967;28;20289;-30
2020/12/22 12:26:52;;;;;;;5.00;3.90;;;;;;;13.42;100.00;99903.03;5062689;28;20195;-30
2020/12/22 12:29:39;;;;;;;5.80;4.70;;;;;;;13.38;100.00;99913.56;5061457;28;20232;-30
2020/12/22 12:32:29;;;;;;;6.80;5.63;;;;;;;13.32;100.00;99916.31;5063328;28;20261;-30
2020/12/22 12:35:15;;;;;;;6.70;6.07;;;;;;;12.93;100.00;99906.00;5062154;28;20497;-30
2020/12/22 12:38:04;;;;;;;8.73;6.37;;;;;;;12.90;100.00;99916.47;5061823;28;20503;-30
2020/12/22 12:40:54;;;;;;;9.00;7.63;;;;;;;12.98;100.00;99918.88;5062473;28;20200;-30
2020/12/22 12:43:42;;;;;;;7.03;6.20;;;;;;;12.98;100.00;99919.72;5060440;28;20735;-30
2020/12/22 12:46:32;;;;;;;7.10;6.43;;;;;;;12.87;100.00;99926.06;5060430;28;20201;-30
2020/12/22 12:49:18;;;;;;;7.10;6.40;;;;;;;12.77;100.00;99921.09;5060545;28;20227;-30
2020/12/22 12:52:03;;;;;;;7.23;6.57;;;;;;;12.93;100.00;99920.72;5060887;28;20259;-30
2020/12/22 12:54:49;;;;;;;12.40;7.47;;;;;;;12.59;100.00;99925.84;5061274;28;20200;-30
2020/12/22 12:57:36;;;;;;;7.70;5.80;;;;;;;12.65;100.00;99921.34;5061564;28;20478;-29
2020/12/22 13:00:23;;;;;;;5.63;5.13;;;;;;;12.53;100.00;99931.16;5061969;28;20200;-30
2020/12/22 13:03:11;;;;;;;6.57;4.87;;;;;;;12.61;100.00;99932.69;5060390;28;20325;-30